N124TL KSHD-KROA
Flight info
| Callsign | N124TL |
|---|---|
| Flight time | 1h 10m |
| Altitude | 6500 |
| Route | VFR SOUTH HUGGING THE MOUNTAIN |
| Aircraft | BE58/L-VGD/C |
Departure
| Time | 2026-04-28 02:05 |
|---|---|
| Airport | Shenandoah Valley Regional Airport (KSHD) |
Arrival
| Time | 2026-04-28 03:16 |
|---|---|
| Airport | Roanoke–Blacksburg Regional Airport (KROA) |
| Time | Latitude | Longitude | Altitude | Speed | Heading |
|---|---|---|---|---|---|
| 2026-04-28 01:57 | 38.26187 | -78.90118 | 1173 ft | 0 kts | 128° |
| 2026-04-28 02:03 | 38.26184 | -78.90024 | 1173 ft | 22 kts | 49° |
| 2026-04-28 02:03 | 38.26397 | -78.89809 | 1177 ft | 45 kts | 39° |
| 2026-04-28 02:04 | 38.26611 | -78.89593 | 1180 ft | 40 kts | 38° |
| 2026-04-28 02:04 | 38.26771 | -78.89435 | 1183 ft | 46 kts | 38° |
| 2026-04-28 02:04 | 38.27070 | -78.89132 | 1188 ft | 23 kts | 53° |
| 2026-04-28 02:04 | 38.26997 | -78.89042 | 1188 ft | 23 kts | 203° |
| 2026-04-28 02:05 | 38.26650 | -78.89382 | 1223 ft | 96 kts | 218° |
| 2026-04-28 02:05 | 38.26025 | -78.90028 | 1371 ft | 136 kts | 218° |
| 2026-04-28 02:05 | 38.25255 | -78.90846 | 1739 ft | 149 kts | 218° |
| 2026-04-28 02:05 | 38.24431 | -78.91702 | 1973 ft | 165 kts | 209° |
| 2026-04-28 02:06 | 38.23241 | -78.91879 | 1890 ft | 184 kts | 166° |
| 2026-04-28 02:06 | 38.22124 | -78.91000 | 1881 ft | 194 kts | 135° |
| 2026-04-28 02:06 | 38.21547 | -78.89445 | 1863 ft | 203 kts | 95° |
| 2026-04-28 02:06 | 38.22004 | -78.87761 | 1871 ft | 209 kts | 56° |
| 2026-04-28 02:07 | 38.22936 | -78.86302 | 1870 ft | 210 kts | 52° |
| 2026-04-28 02:07 | 38.23974 | -78.85017 | 1873 ft | 210 kts | 42° |
| 2026-04-28 02:07 | 38.25070 | -78.83853 | 2214 ft | 195 kts | 41° |
| 2026-04-28 02:07 | 38.26079 | -78.82827 | 2729 ft | 179 kts | 41° |
| 2026-04-28 02:08 | 38.27005 | -78.81826 | 3159 ft | 171 kts | 53° |
| 2026-04-28 02:08 | 38.27761 | -78.80685 | 3564 ft | 168 kts | 55° |
| 2026-04-28 02:08 | 38.28479 | -78.79582 | 4139 ft | 157 kts | 55° |
| 2026-04-28 02:08 | 38.29154 | -78.78548 | 4675 ft | 150 kts | 54° |
| 2026-04-28 02:09 | 38.29813 | -78.77538 | 5166 ft | 147 kts | 54° |
| 2026-04-28 02:09 | 38.30457 | -78.76551 | 5629 ft | 145 kts | 53° |
| 2026-04-28 02:09 | 38.31093 | -78.75580 | 6070 ft | 144 kts | 52° |
| 2026-04-28 02:09 | 38.31727 | -78.74610 | 6510 ft | 143 kts | 52° |
| 2026-04-28 02:10 | 38.32431 | -78.73531 | 6443 ft | 167 kts | 51° |
| 2026-04-28 02:10 | 38.33019 | -78.72632 | 6418 ft | 173 kts | 51° |
| 2026-04-28 02:10 | 38.33626 | -78.71703 | 6407 ft | 177 kts | 52° |
| 2026-04-28 02:10 | 38.34420 | -78.70487 | 6406 ft | 179 kts | 52° |
| 2026-04-28 02:11 | 38.35221 | -78.69262 | 6402 ft | 180 kts | 52° |
| 2026-04-28 02:11 | 38.36028 | -78.68024 | 6403 ft | 180 kts | 51° |
| 2026-04-28 02:11 | 38.36833 | -78.66791 | 6403 ft | 180 kts | 52° |
| 2026-04-28 02:11 | 38.37631 | -78.65568 | 6397 ft | 181 kts | 52° |
| 2026-04-28 02:12 | 38.38440 | -78.64325 | 6393 ft | 182 kts | 51° |
| 2026-04-28 02:12 | 38.39256 | -78.63072 | 6386 ft | 182 kts | 51° |
| 2026-04-28 02:12 | 38.40067 | -78.61828 | 6386 ft | 181 kts | 51° |
| 2026-04-28 02:12 | 38.40872 | -78.60592 | 6389 ft | 181 kts | 51° |
| 2026-04-28 02:13 | 38.41680 | -78.59351 | 6386 ft | 181 kts | 52° |
| 2026-04-28 02:13 | 38.42489 | -78.58109 | 6386 ft | 181 kts | 52° |
| 2026-04-28 02:13 | 38.43295 | -78.56869 | 6385 ft | 181 kts | 52° |
| 2026-04-28 02:13 | 38.44115 | -78.55627 | 6383 ft | 181 kts | 46° |
| 2026-04-28 02:14 | 38.45199 | -78.54812 | 6386 ft | 182 kts | 23° |
| 2026-04-28 02:14 | 38.46380 | -78.54215 | 6388 ft | 182 kts | 22° |
| 2026-04-28 02:14 | 38.47569 | -78.53625 | 6390 ft | 182 kts | 22° |
| 2026-04-28 02:14 | 38.48740 | -78.53043 | 6388 ft | 182 kts | 22° |
| 2026-04-28 02:15 | 38.51111 | -78.51860 | 6391 ft | 181 kts | 22° |
| 2026-04-28 02:15 | 38.52284 | -78.51275 | 6394 ft | 181 kts | 22° |
| 2026-04-28 02:15 | 38.53461 | -78.50687 | 6396 ft | 182 kts | 22° |
| 2026-04-28 02:16 | 38.54648 | -78.50095 | 6389 ft | 182 kts | 22° |
| 2026-04-28 02:16 | 38.55837 | -78.49500 | 6394 ft | 182 kts | 22° |
| 2026-04-28 02:16 | 38.57012 | -78.48913 | 6392 ft | 182 kts | 21° |
| 2026-04-28 02:16 | 38.58208 | -78.48315 | 6393 ft | 183 kts | 22° |
| 2026-04-28 02:17 | 38.59394 | -78.47723 | 6394 ft | 183 kts | 22° |
| 2026-04-28 02:17 | 38.60585 | -78.47126 | 6391 ft | 183 kts | 22° |
| 2026-04-28 02:17 | 38.61764 | -78.46537 | 6383 ft | 182 kts | 22° |
| 2026-04-28 02:17 | 38.62947 | -78.45945 | 6387 ft | 181 kts | 22° |
| 2026-04-28 02:18 | 38.64124 | -78.45356 | 6390 ft | 181 kts | 22° |
| 2026-04-28 02:18 | 38.65303 | -78.44766 | 6394 ft | 181 kts | 22° |
| 2026-04-28 02:18 | 38.66484 | -78.44174 | 6389 ft | 181 kts | 22° |
| 2026-04-28 02:18 | 38.67668 | -78.43581 | 6391 ft | 181 kts | 21° |
| 2026-04-28 02:19 | 38.68832 | -78.42996 | 6388 ft | 181 kts | 21° |
| 2026-04-28 02:19 | 38.70008 | -78.42406 | 6386 ft | 181 kts | 21° |
| 2026-04-28 02:19 | 38.71190 | -78.41813 | 6389 ft | 181 kts | 21° |
| 2026-04-28 02:19 | 38.72368 | -78.41222 | 6390 ft | 181 kts | 21° |
| 2026-04-28 02:20 | 38.73546 | -78.40630 | 6385 ft | 181 kts | 22° |
| 2026-04-28 02:20 | 38.74729 | -78.40037 | 6388 ft | 181 kts | 22° |
| 2026-04-28 02:20 | 38.75898 | -78.39449 | 6389 ft | 181 kts | 22° |
| 2026-04-28 02:20 | 38.77079 | -78.38855 | 6391 ft | 182 kts | 22° |
| 2026-04-28 02:21 | 38.78271 | -78.38256 | 6389 ft | 182 kts | 22° |
| 2026-04-28 02:21 | 38.79456 | -78.37659 | 6385 ft | 182 kts | 22° |
| 2026-04-28 02:21 | 38.80624 | -78.37071 | 6384 ft | 181 kts | 22° |
| 2026-04-28 02:21 | 38.81807 | -78.36475 | 6383 ft | 181 kts | 22° |
| 2026-04-28 02:22 | 38.82983 | -78.35883 | 6385 ft | 181 kts | 22° |
| 2026-04-28 02:22 | 38.84155 | -78.35292 | 6388 ft | 181 kts | 22° |
| 2026-04-28 02:22 | 38.85083 | -78.34259 | 6388 ft | 177 kts | 62° |
| 2026-04-28 02:22 | 38.85598 | -78.32832 | 6387 ft | 176 kts | 70° |
| 2026-04-28 02:23 | 38.86065 | -78.31361 | 6392 ft | 176 kts | 70° |
| 2026-04-28 02:23 | 38.86524 | -78.29896 | 6392 ft | 177 kts | 71° |
| 2026-04-28 02:23 | 38.86986 | -78.28410 | 6390 ft | 177 kts | 71° |
| 2026-04-28 02:23 | 38.87443 | -78.26937 | 6392 ft | 178 kts | 71° |
| 2026-04-28 02:24 | 38.87896 | -78.25469 | 6393 ft | 178 kts | 71° |
| 2026-04-28 02:24 | 38.88348 | -78.24002 | 6394 ft | 178 kts | 70° |
| 2026-04-28 02:24 | 38.88803 | -78.22514 | 6392 ft | 177 kts | 73° |
| 2026-04-28 02:24 | 38.88754 | -78.20991 | 6397 ft | 172 kts | 117° |
| 2026-04-28 02:25 | 38.87901 | -78.19972 | 6401 ft | 170 kts | 155° |
| 2026-04-28 02:25 | 38.86784 | -78.19433 | 6385 ft | 170 kts | 161° |
| 2026-04-28 02:25 | 38.85665 | -78.18960 | 6389 ft | 170 kts | 162° |
| 2026-04-28 02:25 | 38.84534 | -78.18500 | 6392 ft | 170 kts | 163° |
| 2026-04-28 02:26 | 38.83389 | -78.18044 | 6391 ft | 170 kts | 163° |
| 2026-04-28 02:26 | 38.82241 | -78.17651 | 6389 ft | 170 kts | 177° |
| 2026-04-28 02:26 | 38.81162 | -78.18136 | 6395 ft | 170 kts | 220° |
| 2026-04-28 02:26 | 38.80395 | -78.19321 | 6389 ft | 171 kts | 232° |
| 2026-04-28 02:27 | 38.79707 | -78.20571 | 6393 ft | 172 kts | 234° |
| 2026-04-28 02:27 | 38.79025 | -78.21840 | 6392 ft | 173 kts | 234° |
| 2026-04-28 02:27 | 38.78342 | -78.23123 | 6385 ft | 174 kts | 234° |
| 2026-04-28 02:27 | 38.77664 | -78.24409 | 6389 ft | 173 kts | 234° |
| 2026-04-28 02:28 | 38.76987 | -78.25694 | 6389 ft | 174 kts | 234° |
| 2026-04-28 02:28 | 38.76317 | -78.26972 | 6390 ft | 174 kts | 234° |
| 2026-04-28 02:28 | 38.75638 | -78.28268 | 6388 ft | 174 kts | 234° |
| 2026-04-28 02:28 | 38.74965 | -78.29555 | 6387 ft | 174 kts | 234° |
| 2026-04-28 02:29 | 38.74214 | -78.30755 | 6379 ft | 171 kts | 213° |
| 2026-04-28 02:29 | 38.73089 | -78.31171 | 6392 ft | 170 kts | 185° |
| 2026-04-28 02:29 | 38.71903 | -78.31257 | 6389 ft | 170 kts | 182° |
| 2026-04-28 02:29 | 38.70712 | -78.31314 | 6386 ft | 170 kts | 182° |
| 2026-04-28 02:30 | 38.69523 | -78.31363 | 6383 ft | 170 kts | 182° |
| 2026-04-28 02:30 | 38.68333 | -78.31407 | 6384 ft | 170 kts | 182° |
| 2026-04-28 02:30 | 38.67146 | -78.31448 | 6382 ft | 170 kts | 182° |
| 2026-04-28 02:30 | 38.65973 | -78.31529 | 6378 ft | 170 kts | 193° |
| 2026-04-28 02:31 | 38.64900 | -78.32196 | 6389 ft | 170 kts | 211° |
| 2026-04-28 02:31 | 38.63903 | -78.32994 | 6389 ft | 171 kts | 211° |
| 2026-04-28 02:31 | 38.62894 | -78.33813 | 6387 ft | 171 kts | 211° |
| 2026-04-28 02:31 | 38.61880 | -78.34637 | 6384 ft | 172 kts | 211° |
| 2026-04-28 02:32 | 38.60871 | -78.35458 | 6383 ft | 172 kts | 211° |
| 2026-04-28 02:32 | 38.59861 | -78.36281 | 6381 ft | 171 kts | 211° |
| 2026-04-28 02:32 | 38.58853 | -78.37102 | 6384 ft | 171 kts | 211° |
| 2026-04-28 02:32 | 38.57843 | -78.37923 | 6386 ft | 171 kts | 212° |
| 2026-04-28 02:33 | 38.56834 | -78.38747 | 6384 ft | 171 kts | 212° |
| 2026-04-28 02:33 | 38.55819 | -78.39574 | 6382 ft | 171 kts | 212° |
| 2026-04-28 02:33 | 38.54814 | -78.40392 | 6384 ft | 171 kts | 212° |
| 2026-04-28 02:33 | 38.53822 | -78.41202 | 6383 ft | 170 kts | 212° |
| 2026-04-28 02:34 | 38.52820 | -78.42019 | 6384 ft | 171 kts | 212° |
| 2026-04-28 02:34 | 38.51805 | -78.42845 | 6384 ft | 171 kts | 212° |
| 2026-04-28 02:34 | 38.50791 | -78.43615 | 6384 ft | 171 kts | 207° |
| 2026-04-28 02:34 | 38.49736 | -78.44332 | 6385 ft | 171 kts | 207° |
| 2026-04-28 02:35 | 38.48675 | -78.45055 | 6388 ft | 171 kts | 207° |
| 2026-04-28 02:35 | 38.47630 | -78.45768 | 6384 ft | 171 kts | 207° |
| 2026-04-28 02:35 | 38.46578 | -78.46485 | 6388 ft | 171 kts | 207° |
| 2026-04-28 02:35 | 38.45531 | -78.47199 | 6387 ft | 171 kts | 207° |
| 2026-04-28 02:36 | 38.44473 | -78.47922 | 6388 ft | 171 kts | 207° |
| 2026-04-28 02:36 | 38.43417 | -78.48642 | 6384 ft | 171 kts | 207° |
| 2026-04-28 02:36 | 38.42360 | -78.49363 | 6388 ft | 171 kts | 207° |
| 2026-04-28 02:36 | 38.41312 | -78.50076 | 6388 ft | 171 kts | 207° |
| 2026-04-28 02:37 | 38.40255 | -78.50796 | 6389 ft | 170 kts | 208° |
| 2026-04-28 02:37 | 38.39213 | -78.51506 | 6391 ft | 170 kts | 208° |
| 2026-04-28 02:37 | 38.38160 | -78.52223 | 6394 ft | 170 kts | 208° |
| 2026-04-28 02:37 | 38.37114 | -78.52936 | 6392 ft | 170 kts | 208° |
| 2026-04-28 02:38 | 38.36068 | -78.53648 | 6395 ft | 170 kts | 207° |
| 2026-04-28 02:38 | 38.35032 | -78.54376 | 6394 ft | 170 kts | 214° |
| 2026-04-28 02:38 | 38.34168 | -78.55421 | 6400 ft | 172 kts | 226° |
| 2026-04-28 02:38 | 38.33364 | -78.56548 | 6398 ft | 172 kts | 226° |
| 2026-04-28 02:39 | 38.32547 | -78.57691 | 6395 ft | 172 kts | 227° |
| 2026-04-28 02:39 | 38.31742 | -78.58815 | 6397 ft | 172 kts | 226° |
| 2026-04-28 02:39 | 38.30932 | -78.59943 | 6398 ft | 172 kts | 226° |
| 2026-04-28 02:39 | 38.30130 | -78.61061 | 6397 ft | 171 kts | 227° |
| 2026-04-28 02:40 | 38.29324 | -78.62183 | 6394 ft | 171 kts | 226° |
| 2026-04-28 02:40 | 38.28521 | -78.63300 | 6394 ft | 170 kts | 227° |
| 2026-04-28 02:40 | 38.27717 | -78.64418 | 6398 ft | 169 kts | 226° |
| 2026-04-28 02:40 | 38.26919 | -78.65528 | 6398 ft | 169 kts | 226° |
| 2026-04-28 02:41 | 38.26123 | -78.66642 | 6404 ft | 169 kts | 226° |
| 2026-04-28 02:41 | 38.25335 | -78.67754 | 6407 ft | 169 kts | 226° |
| 2026-04-28 02:41 | 38.24545 | -78.68863 | 6408 ft | 170 kts | 226° |
| 2026-04-28 02:41 | 38.23753 | -78.69978 | 6407 ft | 170 kts | 226° |
| 2026-04-28 02:42 | 38.22958 | -78.71096 | 6407 ft | 170 kts | 226° |
| 2026-04-28 02:42 | 38.22159 | -78.72218 | 6407 ft | 171 kts | 226° |
| 2026-04-28 02:42 | 38.21358 | -78.73345 | 6406 ft | 171 kts | 226° |
| 2026-04-28 02:42 | 38.20540 | -78.74429 | 6400 ft | 170 kts | 214° |
| 2026-04-28 02:43 | 38.19435 | -78.74976 | 6411 ft | 168 kts | 193° |
| 2026-04-28 02:43 | 38.18290 | -78.75311 | 6409 ft | 168 kts | 192° |
| 2026-04-28 02:43 | 38.17144 | -78.75629 | 6411 ft | 168 kts | 192° |
| 2026-04-28 02:43 | 38.15995 | -78.75944 | 6411 ft | 168 kts | 192° |
| 2026-04-28 02:44 | 38.14858 | -78.76257 | 6408 ft | 168 kts | 192° |
| 2026-04-28 02:44 | 38.13708 | -78.76572 | 6409 ft | 168 kts | 192° |
| 2026-04-28 02:44 | 38.12557 | -78.76888 | 6409 ft | 168 kts | 192° |
| 2026-04-28 02:44 | 38.11409 | -78.77203 | 6404 ft | 169 kts | 192° |
| 2026-04-28 02:45 | 38.10252 | -78.77520 | 6403 ft | 169 kts | 192° |
| 2026-04-28 02:45 | 38.09147 | -78.78000 | 6400 ft | 169 kts | 214° |
| 2026-04-28 02:45 | 38.08286 | -78.79032 | 6405 ft | 171 kts | 225° |
| 2026-04-28 02:45 | 38.07491 | -78.80151 | 6403 ft | 171 kts | 227° |
| 2026-04-28 02:46 | 38.06697 | -78.81280 | 6403 ft | 171 kts | 226° |
| 2026-04-28 02:46 | 38.05912 | -78.82400 | 6404 ft | 171 kts | 227° |
| 2026-04-28 02:46 | 38.05121 | -78.83530 | 6402 ft | 170 kts | 227° |
| 2026-04-28 02:46 | 38.04331 | -78.84657 | 6403 ft | 170 kts | 227° |
| 2026-04-28 02:47 | 38.03460 | -78.85698 | 6404 ft | 169 kts | 216° |
| 2026-04-28 02:47 | 38.02503 | -78.86569 | 6402 ft | 168 kts | 214° |
| 2026-04-28 02:47 | 38.01546 | -78.87433 | 6403 ft | 168 kts | 215° |
| 2026-04-28 02:47 | 38.00595 | -78.88294 | 6401 ft | 168 kts | 215° |
| 2026-04-28 02:48 | 37.99641 | -78.89158 | 6398 ft | 168 kts | 215° |
| 2026-04-28 02:48 | 37.98689 | -78.90026 | 6398 ft | 168 kts | 216° |
| 2026-04-28 02:48 | 37.97759 | -78.90919 | 6399 ft | 168 kts | 217° |
| 2026-04-28 02:48 | 37.96817 | -78.91827 | 6397 ft | 168 kts | 216° |
| 2026-04-28 02:49 | 37.95887 | -78.92723 | 6395 ft | 169 kts | 216° |
| 2026-04-28 02:49 | 37.94945 | -78.93631 | 6394 ft | 169 kts | 216° |
| 2026-04-28 02:49 | 37.94014 | -78.94526 | 6399 ft | 169 kts | 216° |
| 2026-04-28 02:49 | 37.93123 | -78.95534 | 6399 ft | 170 kts | 224° |
| 2026-04-28 02:50 | 37.92303 | -78.96618 | 6401 ft | 169 kts | 225° |
| 2026-04-28 02:50 | 37.91485 | -78.97698 | 6399 ft | 169 kts | 225° |
| 2026-04-28 02:50 | 37.90673 | -78.98769 | 6398 ft | 169 kts | 225° |
| 2026-04-28 02:50 | 37.89850 | -78.99851 | 6393 ft | 169 kts | 225° |
| 2026-04-28 02:51 | 37.89075 | -79.00975 | 6384 ft | 170 kts | 240° |
| 2026-04-28 02:51 | 37.88974 | -79.02457 | 6388 ft | 175 kts | 282° |
| 2026-04-28 02:51 | 37.89521 | -79.03852 | 6383 ft | 178 kts | 298° |
| 2026-04-28 02:51 | 37.90181 | -79.05175 | 6381 ft | 179 kts | 300° |
| 2026-04-28 02:52 | 37.90863 | -79.06499 | 6381 ft | 179 kts | 300° |
| 2026-04-28 02:52 | 37.91304 | -79.07926 | 6376 ft | 173 kts | 267° |
| 2026-04-28 02:52 | 37.90991 | -79.09383 | 6379 ft | 170 kts | 243° |
| 2026-04-28 02:52 | 37.90474 | -79.10737 | 6379 ft | 170 kts | 241° |
| 2026-04-28 02:53 | 37.89941 | -79.12054 | 6379 ft | 170 kts | 240° |
| 2026-04-28 02:53 | 37.89391 | -79.13385 | 6379 ft | 170 kts | 240° |
| 2026-04-28 02:53 | 37.88633 | -79.14492 | 6384 ft | 167 kts | 211° |
| 2026-04-28 02:53 | 37.87579 | -79.15129 | 6387 ft | 167 kts | 202° |
| 2026-04-28 02:54 | 37.86486 | -79.15691 | 6392 ft | 167 kts | 202° |
| 2026-04-28 02:54 | 37.85403 | -79.16238 | 6390 ft | 167 kts | 202° |
| 2026-04-28 02:54 | 37.84326 | -79.16779 | 6394 ft | 166 kts | 202° |
| 2026-04-28 02:54 | 37.83253 | -79.17315 | 6393 ft | 166 kts | 202° |
| 2026-04-28 02:55 | 37.82389 | -79.18241 | 6396 ft | 167 kts | 236° |
| 2026-04-28 02:55 | 37.81877 | -79.19568 | 6393 ft | 168 kts | 244° |
| 2026-04-28 02:55 | 37.81407 | -79.20943 | 6394 ft | 169 kts | 244° |
| 2026-04-28 02:55 | 37.80947 | -79.22310 | 6391 ft | 169 kts | 244° |
| 2026-04-28 02:56 | 37.80488 | -79.23683 | 6388 ft | 169 kts | 245° |
| 2026-04-28 02:56 | 37.80033 | -79.25053 | 6390 ft | 169 kts | 245° |
| 2026-04-28 02:56 | 37.79550 | -79.26414 | 6387 ft | 169 kts | 234° |
| 2026-04-28 02:56 | 37.78645 | -79.27318 | 6394 ft | 166 kts | 208° |
| 2026-04-28 02:57 | 37.77614 | -79.27995 | 6393 ft | 166 kts | 207° |
| 2026-04-28 02:57 | 37.76594 | -79.28646 | 6392 ft | 166 kts | 207° |
| 2026-04-28 02:57 | 37.75560 | -79.29299 | 6390 ft | 165 kts | 207° |
| 2026-04-28 02:57 | 37.74523 | -79.29951 | 6393 ft | 165 kts | 206° |
| 2026-04-28 02:58 | 37.73492 | -79.30597 | 6395 ft | 165 kts | 207° |
| 2026-04-28 02:58 | 37.72445 | -79.31252 | 6394 ft | 166 kts | 206° |
| 2026-04-28 02:58 | 37.71411 | -79.31896 | 6391 ft | 165 kts | 206° |
| 2026-04-28 02:58 | 37.70381 | -79.32538 | 6389 ft | 165 kts | 206° |
| 2026-04-28 02:59 | 37.69349 | -79.33181 | 6390 ft | 165 kts | 206° |
| 2026-04-28 02:59 | 37.68273 | -79.33664 | 6389 ft | 165 kts | 186° |
| 2026-04-28 02:59 | 37.67112 | -79.33685 | 6391 ft | 165 kts | 180° |
| 2026-04-28 02:59 | 37.65954 | -79.33654 | 6390 ft | 165 kts | 180° |
| 2026-04-28 03:00 | 37.64796 | -79.33619 | 6390 ft | 166 kts | 180° |
| 2026-04-28 03:00 | 37.63646 | -79.33581 | 6391 ft | 166 kts | 180° |
| 2026-04-28 03:00 | 37.62489 | -79.33544 | 6392 ft | 166 kts | 180° |
| 2026-04-28 03:00 | 37.61326 | -79.33505 | 6395 ft | 166 kts | 180° |
| 2026-04-28 03:01 | 37.60158 | -79.33466 | 6396 ft | 167 kts | 180° |
| 2026-04-28 03:01 | 37.58995 | -79.33451 | 6394 ft | 167 kts | 188° |
| 2026-04-28 03:01 | 37.58013 | -79.34187 | 6324 ft | 171 kts | 230° |
| 2026-04-28 03:01 | 37.57545 | -79.35632 | 5772 ft | 184 kts | 253° |
| 2026-04-28 03:02 | 37.57262 | -79.37213 | 5235 ft | 186 kts | 255° |
| 2026-04-28 03:02 | 37.57000 | -79.38789 | 5068 ft | 177 kts | 255° |
| 2026-04-28 03:02 | 37.56757 | -79.40277 | 5119 ft | 172 kts | 255° |
| 2026-04-28 03:02 | 37.56517 | -79.41753 | 5132 ft | 171 kts | 255° |
| 2026-04-28 03:03 | 37.56276 | -79.43225 | 5135 ft | 170 kts | 252° |
| 2026-04-28 03:03 | 37.55712 | -79.44486 | 5142 ft | 165 kts | 231° |
| 2026-04-28 03:03 | 37.55002 | -79.45644 | 5134 ft | 164 kts | 229° |
| 2026-04-28 03:03 | 37.54299 | -79.46769 | 5161 ft | 164 kts | 229° |
| 2026-04-28 03:04 | 37.53584 | -79.47912 | 5153 ft | 166 kts | 229° |
| 2026-04-28 03:04 | 37.52868 | -79.49054 | 5127 ft | 165 kts | 229° |
| 2026-04-28 03:04 | 37.52156 | -79.50190 | 5142 ft | 164 kts | 229° |
| 2026-04-28 03:04 | 37.51436 | -79.51326 | 5162 ft | 164 kts | 229° |
| 2026-04-28 03:05 | 37.50722 | -79.52446 | 5142 ft | 165 kts | 228° |
| 2026-04-28 03:05 | 37.50003 | -79.53571 | 5149 ft | 165 kts | 229° |
| 2026-04-28 03:05 | 37.49273 | -79.54712 | 5144 ft | 165 kts | 228° |
| 2026-04-28 03:05 | 37.48550 | -79.55844 | 5144 ft | 165 kts | 228° |
| 2026-04-28 03:06 | 37.47828 | -79.56973 | 5159 ft | 165 kts | 228° |
| 2026-04-28 03:06 | 37.47113 | -79.58091 | 5145 ft | 165 kts | 229° |
| 2026-04-28 03:06 | 37.46386 | -79.59229 | 5134 ft | 165 kts | 229° |
| 2026-04-28 03:06 | 37.45752 | -79.60438 | 5135 ft | 165 kts | 235° |
| 2026-04-28 03:07 | 37.45255 | -79.61734 | 5140 ft | 170 kts | 257° |
| 2026-04-28 03:07 | 37.45498 | -79.63212 | 5137 ft | 178 kts | 294° |
| 2026-04-28 03:07 | 37.46158 | -79.64556 | 5125 ft | 179 kts | 300° |
| 2026-04-28 03:07 | 37.46859 | -79.65878 | 5127 ft | 180 kts | 300° |
| 2026-04-28 03:08 | 37.47438 | -79.67260 | 5122 ft | 174 kts | 275° |
| 2026-04-28 03:08 | 37.47242 | -79.68671 | 5130 ft | 165 kts | 238° |
| 2026-04-28 03:08 | 37.46611 | -79.69877 | 5134 ft | 164 kts | 230° |
| 2026-04-28 03:08 | 37.45927 | -79.71027 | 5132 ft | 164 kts | 229° |
| 2026-04-28 03:09 | 37.45227 | -79.72171 | 5132 ft | 164 kts | 228° |
| 2026-04-28 03:09 | 37.44521 | -79.73312 | 5126 ft | 164 kts | 229° |
| 2026-04-28 03:09 | 37.43818 | -79.74445 | 4958 ft | 174 kts | 228° |
| 2026-04-28 03:09 | 37.43049 | -79.75682 | 4304 ft | 178 kts | 228° |
| 2026-04-28 03:10 | 37.42287 | -79.76868 | 3635 ft | 176 kts | 218° |
| 2026-04-28 03:10 | 37.41272 | -79.77610 | 3340 ft | 158 kts | 200° |
| 2026-04-28 03:10 | 37.40284 | -79.78182 | 3463 ft | 158 kts | 200° |
| 2026-04-28 03:10 | 37.39254 | -79.78769 | 3466 ft | 163 kts | 200° |
| 2026-04-28 03:11 | 37.38278 | -79.79499 | 3271 ft | 174 kts | 224° |
| 2026-04-28 03:11 | 37.37617 | -79.80849 | 2922 ft | 176 kts | 232° |
| 2026-04-28 03:11 | 37.36959 | -79.82123 | 2675 ft | 170 kts | 238° |
| 2026-04-28 03:11 | 37.36685 | -79.83511 | 2714 ft | 163 kts | 262° |
| 2026-04-28 03:12 | 37.36541 | -79.84920 | 2646 ft | 164 kts | 257° |
| 2026-04-28 03:12 | 37.36327 | -79.86356 | 2555 ft | 168 kts | 257° |
| 2026-04-28 03:12 | 37.36286 | -79.87817 | 2443 ft | 171 kts | 263° |
| 2026-04-28 03:12 | 37.35955 | -79.89204 | 2305 ft | 162 kts | 242° |
| 2026-04-28 03:13 | 37.35512 | -79.90483 | 2201 ft | 158 kts | 242° |
| 2026-04-28 03:13 | 37.35051 | -79.91729 | 2150 ft | 156 kts | 241° |
| 2026-04-28 03:13 | 37.34633 | -79.92959 | 2172 ft | 152 kts | 242° |
| 2026-04-28 03:13 | 37.34391 | -79.94238 | 2167 ft | 155 kts | 279° |
| 2026-04-28 03:14 | 37.34989 | -79.95385 | 2064 ft | 163 kts | 316° |
| 2026-04-28 03:14 | 37.35822 | -79.96378 | 1969 ft | 167 kts | 314° |
| 2026-04-28 03:14 | 37.36120 | -79.97643 | 2053 ft | 148 kts | 251° |
| 2026-04-28 03:14 | 37.35736 | -79.98797 | 2001 ft | 138 kts | 236° |
| 2026-04-28 03:15 | 37.35028 | -79.99395 | 2012 ft | 121 kts | 182° |
| 2026-04-28 03:15 | 37.34188 | -79.99136 | 1709 ft | 129 kts | 152° |
| 2026-04-28 03:15 | 37.33424 | -79.98536 | 1387 ft | 120 kts | 147° |
| 2026-04-28 03:15 | 37.32804 | -79.98039 | 1187 ft | 102 kts | 146° |
| 2026-04-28 03:16 | 37.32301 | -79.97643 | 1156 ft | 63 kts | 148° |
| 2026-04-28 03:16 | 37.32114 | -79.97433 | 1154 ft | 27 kts | 79° |
| 2026-04-28 03:16 | 37.32196 | -79.97245 | 1156 ft | 24 kts | 60° |
| 2026-04-28 03:16 | 37.32242 | -79.97101 | 1157 ft | 9 kts | 128° |
| 2026-04-28 03:17 | 37.32237 | -79.97096 | 1157 ft | 0 kts | 146° |